Time;durP1;ratioP1;P1;durP2;ratioP2;P2;SDS_P1;SDS_P2;PMS_P1;PMS_P2;Temp;Humidity;BMP_temperature;BMP_pressure;BME280_temperature;BME280_humidity;BME280_pressure;Samples;Min_cycle;Max_cycle;Signal;HPM_P1;HPM_P2
2022/10/15 00:02:51;;;;;;;14.85;6.97;;;;;;;13.58;100.00;100473.72;6274870;28;20045;-73
2022/10/15 00:05:53;;;;;;;17.08;8.65;;;;;;;13.52;100.00;100469.72;6274198;28;20053;-74
2022/10/15 00:08:54;;;;;;;18.83;8.63;;;;;;;13.49;100.00;100454.13;6274981;28;20049;-74
2022/10/15 00:11:56;;;;;;;14.32;7.72;;;;;;;13.46;100.00;100459.59;6274178;28;20072;-73
2022/10/15 00:14:57;;;;;;;17.08;7.82;;;;;;;13.42;100.00;100458.13;6274261;28;20052;-74
2022/10/15 00:18:00;;;;;;;15.32;7.25;;;;;;;13.39;100.00;100464.44;6274562;28;20045;-74
2022/10/15 00:21:01;;;;;;;15.02;7.10;;;;;;;13.39;100.00;100466.25;6274049;28;20092;-73
2022/10/15 00:24:05;;;;;;;18.70;8.32;;;;;;;13.36;100.00;100461.19;6273963;28;20049;-73
2022/10/15 00:27:06;;;;;;;12.70;6.53;;;;;;;13.36;100.00;100461.19;6274344;28;20053;-74
2022/10/15 00:30:09;;;;;;;14.30;7.82;;;;;;;13.28;100.00;100453.81;6273931;28;20045;-74
2022/10/15 00:33:11;;;;;;;15.05;7.20;;;;;;;13.18;100.00;100461.47;6274077;28;20052;-74
2022/10/15 00:36:15;;;;;;;16.95;8.30;;;;;;;13.08;100.00;100467.47;6273791;28;20060;-74
2022/10/15 00:39:17;;;;;;;13.20;7.38;;;;;;;12.95;100.00;100462.22;6272896;28;20060;-74
2022/10/15 00:42:18;;;;;;;15.70;7.43;;;;;;;12.88;100.00;100460.91;6273720;28;20045;-74
2022/10/15 00:45:20;;;;;;;13.25;6.43;;;;;;;12.80;100.00;100463.22;6273325;28;20048;-73
2022/10/15 00:48:23;;;;;;;15.30;7.20;;;;;;;12.74;100.00;100466.28;6274055;28;20049;-73
2022/10/15 00:51:29;;;;;;;14.07;6.85;;;;;;;12.67;100.00;100468.47;6273137;28;20052;-74
2022/10/15 00:54:34;;;;;;;16.70;7.65;;;;;;;12.65;100.00;100467.75;6273571;28;20053;-74
2022/10/15 00:57:36;;;;;;;16.08;7.82;;;;;;;12.59;100.00;100468.16;6274018;28;20056;-74
2022/10/15 01:00:37;;;;;;;17.52;7.45;;;;;;;12.50;100.00;100469.59;6273153;28;20052;-74
2022/10/15 01:03:41;;;;;;;18.35;7.65;;;;;;;12.44;100.00;100462.06;6273561;28;20052;-74
2022/10/15 01:06:43;;;;;;;15.50;7.75;;;;;;;12.39;100.00;100461.53;6273306;28;20049;-74
2022/10/15 01:09:45;;;;;;;17.75;7.32;;;;;;;12.38;100.00;100463.34;6273094;28;20045;-73
2022/10/15 01:12:57;;;;;;;14.38;7.07;;;;;;;12.39;100.00;100467.66;6272942;28;20052;-73
2022/10/15 01:16:06;;;;;;;14.70;7.03;;;;;;;12.35;100.00;100462.69;6272957;28;20123;-73
2022/10/15 01:19:25;;;;;;;14.98;7.38;;;;;;;12.29;100.00;100455.19;6273174;28;20049;-74
2022/10/15 01:22:41;;;;;;;14.77;7.43;;;;;;;12.24;100.00;100455.50;6272696;28;20049;-74
2022/10/15 01:25:55;;;;;;;16.00;7.80;;;;;;;12.18;100.00;100451.47;6272552;28;20045;-74
2022/10/15 01:29:06;;;;;;;14.05;7.43;;;;;;;12.14;100.00;100451.75;6273049;28;20044;-74
2022/10/15 01:32:17;;;;;;;16.08;8.00;;;;;;;12.06;100.00;100443.50;6272554;28;20056;-74
2022/10/15 01:35:29;;;;;;;17.05;7.40;;;;;;;11.99;100.00;100450.09;6272390;28;20057;-74
2022/10/15 01:38:41;;;;;;;17.40;7.50;;;;;;;11.93;100.00;100446.06;6272844;28;20045;-74
2022/10/15 01:41:45;;;;;;;16.05;7.18;;;;;;;11.87;100.00;100442.06;6271778;28;20051;-74
2022/10/15 01:44:51;;;;;;;16.15;7.57;;;;;;;11.82;100.00;100440.63;6272364;28;20053;-74
2022/10/15 01:47:56;;;;;;;16.42;6.85;;;;;;;11.77;100.00;100445.34;6272353;28;20053;-74
2022/10/15 01:51:00;;;;;;;18.15;7.63;;;;;;;11.71;100.00;100441.28;6272428;28;20055;-74
2022/10/15 01:54:05;;;;;;;17.02;7.32;;;;;;;11.67;100.00;100447.69;6271651;28;20523;-74
2022/10/15 01:57:07;;;;;;;15.20;7.63;;;;;;;11.64;100.00;100442.63;6272489;28;20103;-74
2022/10/15 02:00:09;;;;;;;18.70;8.65;;;;;;;11.62;100.00;100444.50;6271694;28;20048;-74
2022/10/15 02:03:13;;;;;;;18.05;7.85;;;;;;;11.66;100.00;100440.72;6271851;28;20041;-74
2022/10/15 02:06:21;;;;;;;22.40;8.40;;;;;;;11.76;100.00;100428.66;6271647;28;20052;-73
2022/10/15 02:09:32;;;;;;;18.63;8.43;;;;;;;11.92;100.00;100436.50;6272192;28;20052;-73
2022/10/15 02:12:46;;;;;;;25.80;10.55;;;;;;;12.03;100.00;100426.09;6271560;28;20044;-73
2022/10/15 02:15:57;;;;;;;27.70;9.95;;;;;;;12.10;100.00;100423.94;6271563;28;20099;-73
2022/10/15 02:19:06;;;;;;;32.03;12.02;;;;;;;12.14;100.00;100422.78;6271760;28;20060;-73
2022/10/15 02:22:11;;;;;;;33.03;11.10;;;;;;;12.22;100.00;100424.91;6271353;28;20496;-73
2022/10/15 02:25:18;;;;;;;28.92;10.98;;;;;;;12.24;100.00;100421.25;6271287;28;20053;-74
2022/10/15 02:28:21;;;;;;;29.23;10.48;;;;;;;12.26;100.00;100424.59;6271670;28;20056;-74
2022/10/15 02:31:24;;;;;;;24.20;8.93;;;;;;;12.32;100.00;100418.09;6271265;28;20052;-74
2022/10/15 02:34:30;;;;;;;32.63;10.23;;;;;;;12.33;100.00;100417.16;6270899;28;20085;-74
2022/10/15 02:37:34;;;;;;;30.42;10.07;;;;;;;12.32;100.00;100415.47;6271601;28;20046;-74
2022/10/15 02:40:37;;;;;;;26.23;9.77;;;;;;;12.31;100.00;100409.38;6270790;28;20052;-73
2022/10/15 02:43:40;;;;;;;29.95;10.88;;;;;;;12.30;100.00;100412.91;6271420;28;20049;-74
2022/10/15 02:46:42;;;;;;;27.95;11.02;;;;;;;12.27;100.00;100418.41;6271076;28;20424;-74
2022/10/15 02:49:45;;;;;;;25.65;9.68;;;;;;;12.24;100.00;100409.84;6271037;28;20056;-74
2022/10/15 02:52:47;;;;;;;24.67;9.80;;;;;;;12.18;100.00;100417.22;6271104;28;20049;-74
2022/10/15 02:55:48;;;;;;;25.77;10.23;;;;;;;12.14;100.00;100418.38;6268764;28;20512;-74
2022/10/15 02:58:50;;;;;;;27.15;9.25;;;;;;;12.08;100.00;100423.16;6246460;28;20053;-73
2022/10/15 03:01:51;;;;;;;28.88;10.32;;;;;;;12.04;100.00;100421.69;6247665;28;20049;-73
2022/10/15 03:04:54;;;;;;;26.35;10.35;;;;;;;11.98;100.00;100415.03;6259662;28;20056;-74
2022/10/15 03:07:56;;;;;;;26.80;10.52;;;;;;;11.95;100.00;100415.25;6276082;28;20509;-74
2022/10/15 03:10:59;;;;;;;26.23;10.23;;;;;;;11.96;100.00;100418.72;6275678;28;20489;-73
2022/10/15 03:14:01;;;;;;;21.10;8.68;;;;;;;11.98;100.00;100425.56;6275515;28;21010;-74
2022/10/15 03:17:02;;;;;;;28.58;9.82;;;;;;;12.01;100.00;100422.72;6275827;28;20064;-73
2022/10/15 03:20:06;;;;;;;26.15;11.38;;;;;;;12.03;100.00;100420.00;6275628;28;20044;-73
2022/10/15 03:23:07;;;;;;;29.73;10.43;;;;;;;12.04;100.00;100416.44;6275573;28;20428;-74
2022/10/15 03:26:09;;;;;;;30.08;9.30;;;;;;;12.05;100.00;100411.06;6275699;28;20071;-73
2022/10/15 03:29:10;;;;;;;31.17;11.63;;;;;;;12.06;100.00;100411.91;6266939;28;20055;-74
2022/10/15 03:32:12;;;;;;;21.67;9.32;;;;;;;12.02;100.00;100411.25;6255953;28;20049;-73
2022/10/15 03:35:15;;;;;;;23.90;9.88;;;;;;;12.03;100.00;100417.34;6250412;28;20056;-74
2022/10/15 03:38:16;;;;;;;22.38;8.27;;;;;;;12.04;100.00;100414.66;6254458;28;20405;-73
2022/10/15 03:41:17;;;;;;;22.88;9.05;;;;;;;12.01;100.00;100417.47;6258991;28;20052;-73
2022/10/15 03:44:19;;;;;;;19.20;8.82;;;;;;;12.01;100.00;100412.19;6256766;28;20432;-73
2022/10/15 03:47:21;;;;;;;17.67;8.15;;;;;;;11.98;100.00;100409.75;6260595;28;20048;-73
2022/10/15 03:50:23;;;;;;;17.13;7.53;;;;;;;11.99;100.00;100405.31;6262052;28;20049;-74
2022/10/15 03:53:25;;;;;;;17.45;8.48;;;;;;;11.96;100.00;100402.91;6262799;28;20049;-73
2022/10/15 03:56:26;;;;;;;12.65;6.57;;;;;;;11.96;100.00;100408.19;6264805;28;20041;-73
2022/10/15 03:59:28;;;;;;;18.83;8.02;;;;;;;11.87;100.00;100410.47;6262472;28;20063;-73
2022/10/15 04:02:31;;;;;;;13.38;6.47;;;;;;;11.79;100.00;100410.06;6259239;28;20049;-73
2022/10/15 04:05:34;;;;;;;13.90;6.28;;;;;;;11.79;100.00;100419.75;6261362;28;20045;-73
2022/10/15 04:08:35;;;;;;;17.55;8.20;;;;;;;11.77;100.00;100419.84;6260545;28;20053;-74
2022/10/15 04:11:36;;;;;;;15.48;7.22;;;;;;;11.76;100.00;100423.41;6260281;28;20049;-73
2022/10/15 04:14:38;;;;;;;17.42;8.05;;;;;;;11.71;100.00;100422.84;6259143;28;20053;-73
2022/10/15 04:17:39;;;;;;;12.73;6.47;;;;;;;11.68;100.00;100421.28;6260291;28;20053;-73
2022/10/15 04:20:42;;;;;;;11.95;6.50;;;;;;;11.65;100.00;100418.00;6260656;28;20041;-73
2022/10/15 04:23:44;;;;;;;14.70;7.43;;;;;;;11.67;100.00;100431.88;6261402;28;20398;-74
2022/10/15 04:26:45;;;;;;;14.80;7.05;;;;;;;11.64;100.00;100425.03;6259506;28;20041;-74
2022/10/15 04:29:48;;;;;;;15.38;7.00;;;;;;;11.61;100.00;100429.66;6261234;28;20052;-73
2022/10/15 04:32:51;;;;;;;17.90;8.45;;;;;;;11.51;100.00;100426.75;6258997;28;20437;-73
2022/10/15 04:36:00;;;;;;;14.90;6.40;;;;;;;11.42;100.00;100430.78;6249127;28;20051;-73
2022/10/15 04:39:01;;;;;;;13.45;6.70;;;;;;;11.40;100.00;100427.44;6249740;28;20056;-73
2022/10/15 04:42:03;;;;;;;12.65;6.32;;;;;;;11.35;100.00;100426.84;6248824;28;20046;-73
2022/10/15 04:45:07;;;;;;;14.13;6.72;;;;;;;11.40;100.00;100430.06;6256058;28;20053;-73
2022/10/15 04:48:08;;;;;;;14.32;6.82;;;;;;;11.40;100.00;100427.44;6260840;28;20049;-73
2022/10/15 04:51:13;;;;;;;15.65;6.40;;;;;;;11.43;100.00;100431.63;6261228;28;20080;-74
2022/10/15 04:54:14;;;;;;;16.83;6.45;;;;;;;11.46;100.00;100426.19;6267609;28;20053;-73
2022/10/15 04:57:16;;;;;;;15.93;7.15;;;;;;;11.47;100.00;100430.50;6273723;28;20052;-74
2022/10/15 05:00:17;;;;;;;15.02;7.15;;;;;;;11.49;100.00;100430.41;6273288;28;20045;-73
2022/10/15 05:03:19;;;;;;;16.55;7.03;;;;;;;11.50;100.00;100429.50;6273509;28;20060;-73
2022/10/15 05:06:22;;;;;;;20.77;8.15;;;;;;;11.53;100.00;100430.13;6273212;28;20059;-73
2022/10/15 05:09:24;;;;;;;23.90;8.30;;;;;;;11.50;100.00;100425.06;6273443;28;20056;-74
2022/10/15 05:12:25;;;;;;;16.48;7.50;;;;;;;11.48;100.00;100431.34;6273063;28;20048;-73
2022/10/15 05:15:27;;;;;;;14.52;6.57;;;;;;;11.49;100.00;100427.78;6272940;28;20057;-73
2022/10/15 05:18:28;;;;;;;16.58;7.40;;;;;;;11.47;100.00;100435.78;6273421;28;20049;-73
2022/10/15 05:21:32;;;;;;;21.10;8.52;;;;;;;11.43;100.00;100435.13;6272820;28;20060;-74
2022/10/15 05:24:33;;;;;;;20.95;8.13;;;;;;;11.46;100.00;100441.16;6272485;28;20049;-73
2022/10/15 05:27:35;;;;;;;24.58;8.63;;;;;;;11.48;100.00;100432.19;6273007;28;20416;-73
2022/10/15 05:30:36;;;;;;;21.08;8.57;;;;;;;11.50;100.00;100440.03;6272512;28;20045;-73
2022/10/15 05:33:38;;;;;;;22.10;9.10;;;;;;;11.53;100.00;100438.00;6272777;28;20416;-73
2022/10/15 05:36:41;;;;;;;24.48;9.43;;;;;;;11.54;100.00;100434.47;6272412;28;20049;-73
2022/10/15 05:39:42;;;;;;;29.25;9.18;;;;;;;11.56;100.00;100435.19;6272753;28;20124;-73
2022/10/15 05:42:44;;;;;;;30.00;10.00;;;;;;;11.56;100.00;100445.72;6272418;28;20045;-73
2022/10/15 05:45:45;;;;;;;23.88;8.45;;;;;;;11.58;100.00;100441.22;6272320;28;20049;-73
2022/10/15 05:48:48;;;;;;;26.90;10.02;;;;;;;11.58;100.00;100446.50;6272611;28;20052;-73
2022/10/15 05:51:51;;;;;;;25.98;10.77;;;;;;;11.55;100.00;100444.03;6271893;28;20421;-73
2022/10/15 05:54:52;;;;;;;22.88;9.05;;;;;;;11.56;100.00;100452.78;6272066;28;20064;-73
2022/10/15 05:57:54;;;;;;;36.38;11.10;;;;;;;11.53;100.00;100452.97;6272425;28;20053;-73
2022/10/15 06:00:56;;;;;;;38.45;10.30;;;;;;;11.47;100.00;100459.47;6272024;28;20045;-73
2022/10/15 06:03:58;;;;;;;33.45;10.98;;;;;;;11.47;100.00;100443.66;6271565;28;20049;-73
2022/10/15 06:07:01;;;;;;;40.67;10.73;;;;;;;11.45;100.00;100450.81;6272191;28;20523;-73
2022/10/15 06:10:02;;;;;;;29.65;9.50;;;;;;;11.50;100.00;100442.66;6271644;28;20060;-73
2022/10/15 06:13:04;;;;;;;42.22;10.80;;;;;;;11.55;100.00;100440.56;6271697;28;20622;-73
2022/10/15 06:16:06;;;;;;;31.75;10.48;;;;;;;11.54;100.00;100445.00;6268413;28;20088;-73
2022/10/15 06:19:08;;;;;;;28.83;9.60;;;;;;;11.52;100.00;100440.75;6259531;28;20057;-73
2022/10/15 06:22:11;;;;;;;30.50;9.95;;;;;;;11.53;100.00;100447.69;6253319;28;20505;-73
2022/10/15 06:25:12;;;;;;;30.67;10.48;;;;;;;11.54;100.00;100455.53;6256298;28;20057;-73
2022/10/15 06:28:14;;;;;;;31.48;9.55;;;;;;;11.55;100.00;100461.63;6256568;28;20049;-74
2022/10/15 06:31:15;;;;;;;30.05;10.68;;;;;;;11.53;100.00;100466.97;6257920;28;20049;-74
2022/10/15 06:34:17;;;;;;;26.67;10.85;;;;;;;11.46;100.00;100457.78;6256885;28;20072;-73
2022/10/15 06:37:20;;;;;;;23.40;9.90;;;;;;;11.49;100.00;100459.34;6259809;28;20516;-73
2022/10/15 06:40:21;;;;;;;22.10;8.90;;;;;;;11.45;100.00;100469.25;6264922;28;20048;-73
2022/10/15 06:43:23;;;;;;;22.40;9.30;;;;;;;11.41;100.00;100471.22;6269840;28;20049;-73
2022/10/15 06:46:25;;;;;;;24.30;9.57;;;;;;;11.41;100.00;100470.38;6265620;28;20072;-73
2022/10/15 06:49:26;;;;;;;24.60;8.35;;;;;;;11.45;100.00;100476.28;6256327;28;20045;-73
2022/10/15 06:52:31;;;;;;;22.48;9.07;;;;;;;11.52;100.00;100491.59;6250837;28;20064;-73
2022/10/15 06:55:33;;;;;;;27.70;9.50;;;;;;;11.48;100.00;100487.47;6270640;28;20059;-73
2022/10/15 06:58:34;;;;;;;25.00;8.93;;;;;;;11.49;100.00;100494.44;6271066;28;20417;-74
2022/10/15 07:01:35;;;;;;;21.27;9.00;;;;;;;11.51;100.00;100491.69;6270308;28;20412;-73
2022/10/15 07:04:37;;;;;;;23.55;10.13;;;;;;;11.53;100.00;100493.28;6271161;28;20049;-73
2022/10/15 07:07:40;;;;;;;21.52;9.00;;;;;;;11.57;100.00;100493.94;6270999;28;20422;-73
2022/10/15 07:10:41;;;;;;;18.58;7.60;;;;;;;11.59;100.00;100497.34;6270240;28;20045;-74
2022/10/15 07:13:43;;;;;;;19.58;9.43;;;;;;;11.56;100.00;100498.38;6263835;28;20059;-74
2022/10/15 07:16:44;;;;;;;22.20;8.95;;;;;;;11.56;100.00;100498.38;6271000;28;20555;-74
2022/10/15 07:19:46;;;;;;;28.60;8.60;;;;;;;11.53;100.00;100501.19;6270016;28;20187;-74
2022/10/15 07:22:48;;;;;;;22.88;10.15;;;;;;;11.51;100.00;100499.59;6270540;28;20082;-74
2022/10/15 07:25:50;;;;;;;22.25;9.05;;;;;;;11.55;100.00;100499.31;6270705;28;20045;-73
2022/10/15 07:28:51;;;;;;;16.83;7.15;;;;;;;11.61;100.00;100495.44;6270717;28;20523;-74
2022/10/15 07:31:53;;;;;;;24.98;8.80;;;;;;;11.65;100.00;100502.22;6265116;28;20069;-74
2022/10/15 07:34:54;;;;;;;26.15;9.55;;;;;;;11.63;100.00;100498.84;6270265;28;20060;-74
2022/10/15 07:38:00;;;;;;;19.45;7.78;;;;;;;11.67;100.00;100501.19;6270660;28;20053;-74
2022/10/15 07:41:04;;;;;;;20.83;8.63;;;;;;;11.72;100.00;100497.41;6270213;28;20053;-74
2022/10/15 07:44:05;;;;;;;23.50;8.48;;;;;;;11.74;100.00;100498.19;6270095;28;20531;-74
2022/10/15 07:47:07;;;;;;;24.92;8.10;;;;;;;11.78;100.00;100499.69;6271571;28;20056;-74
2022/10/15 07:50:09;;;;;;;21.48;8.90;;;;;;;11.88;100.00;100503.44;6274752;28;20439;-74
2022/10/15 07:53:12;;;;;;;20.25;7.95;;;;;;;11.93;100.00;100501.38;6275361;28;20053;-73
2022/10/15 07:56:15;;;;;;;27.05;9.23;;;;;;;11.98;100.00;100487.91;6274644;28;20059;-74
2022/10/15 07:59:17;;;;;;;34.65;12.23;;;;;;;12.02;100.00;100492.88;6275206;28;20060;-74
2022/10/15 08:02:19;;;;;;;28.27;9.35;;;;;;;12.06;100.00;100493.56;6274400;28;20060;-74
2022/10/15 08:05:21;;;;;;;28.73;9.32;;;;;;;12.12;100.00;100480.81;6274789;28;20053;-74
2022/10/15 08:08:23;;;;;;;27.20;9.60;;;;;;;12.18;100.00;100487.50;6274794;28;20053;-74
2022/10/15 08:11:25;;;;;;;24.27;8.68;;;;;;;12.25;100.00;100491.41;6274142;28;20420;-73
2022/10/15 08:14:26;;;;;;;26.20;9.55;;;;;;;12.35;100.00;100491.66;6253025;28;20049;-74
2022/10/15 08:17:28;;;;;;;27.42;11.32;;;;;;;12.43;100.00;100494.66;6263963;28;20053;-74
2022/10/15 08:20:29;;;;;;;30.05;10.90;;;;;;;12.50;100.00;100501.22;6274010;28;20053;-74
2022/10/15 08:23:32;;;;;;;30.23;10.25;;;;;;;12.60;100.00;100493.56;6274292;28;20456;-74
2022/10/15 08:26:34;;;;;;;36.45;11.80;;;;;;;12.62;100.00;100492.50;6274002;28;20053;-74
2022/10/15 08:29:35;;;;;;;33.58;11.30;;;;;;;12.66;100.00;100486.09;6274172;28;20103;-74
2022/10/15 08:32:37;;;;;;;30.70;10.23;;;;;;;12.78;100.00;100484.44;6274109;28;20467;-74
2022/10/15 08:35:42;;;;;;;31.02;10.68;;;;;;;12.88;100.00;100490.78;6273880;28;20060;-73
2022/10/15 08:38:45;;;;;;;25.13;10.13;;;;;;;12.98;100.00;100495.44;6273289;28;20601;-74
2022/10/15 08:41:51;;;;;;;28.58;11.70;;;;;;;13.04;100.00;100492.41;6268991;28;20060;-74
2022/10/15 08:44:58;;;;;;;32.95;12.20;;;;;;;13.12;100.00;100500.63;6273802;28;20049;-73
2022/10/15 08:48:04;;;;;;;34.47;11.20;;;;;;;13.18;100.00;100494.94;6273964;28;20053;-74
2022/10/15 08:51:10;;;;;;;38.97;12.35;;;;;;;13.24;100.00;100489.28;6273514;28;20045;-73
2022/10/15 08:54:17;;;;;;;29.85;10.88;;;;;;;13.31;100.00;100492.34;6273185;28;20044;-73
2022/10/15 08:57:30;;;;;;;33.60;12.75;;;;;;;13.32;100.00;100492.22;6272172;28;20134;-73
2022/10/15 09:00:38;;;;;;;30.80;12.75;;;;;;;13.39;100.00;100490.84;6271002;28;20041;-73
2022/10/15 09:03:48;;;;;;;32.90;11.32;;;;;;;13.48;100.00;100491.16;6269181;28;20048;-74
2022/10/15 09:06:56;;;;;;;36.40;12.15;;;;;;;13.53;100.00;100496.97;6269508;28;20045;-74
2022/10/15 09:10:09;;;;;;;32.53;12.88;;;;;;;13.60;100.00;100491.16;6271914;28;20527;-73
2022/10/15 09:13:16;;;;;;;34.08;11.90;;;;;;;13.72;100.00;100497.38;6273245;28;20049;-74
2022/10/15 09:16:19;;;;;;;34.15;13.45;;;;;;;13.70;100.00;100497.47;6273062;28;20152;-74
2022/10/15 09:19:23;;;;;;;31.52;11.95;;;;;;;13.74;100.00;100500.75;6271129;28;20057;-74
2022/10/15 09:22:27;;;;;;;36.72;12.85;;;;;;;13.79;100.00;100510.97;6271851;28;20507;-74
2022/10/15 09:25:34;;;;;;;39.75;13.93;;;;;;;13.84;100.00;100503.56;6272590;28;20045;-74
2022/10/15 09:28:43;;;;;;;32.25;12.02;;;;;;;13.86;100.00;100502.53;6223564;28;20050;-76
2022/10/15 09:31:50;;;;;;;35.13;13.50;;;;;;;13.92;100.00;100501.25;6213039;28;20049;-75
2022/10/15 09:34:59;;;;;;;34.63;13.48;;;;;;;13.93;100.00;100498.47;6221305;28;20057;-74
2022/10/15 09:38:12;;;;;;;39.58;13.02;;;;;;;13.99;100.00;100499.00;6222612;28;20056;-74
2022/10/15 09:41:25;;;;;;;41.58;14.93;;;;;;;14.05;100.00;100485.38;6222214;28;20045;-74
2022/10/15 09:44:35;;;;;;;38.20;13.20;;;;;;;14.09;100.00;100497.41;6222901;28;20061;-74
2022/10/15 09:47:40;;;;;;;38.55;13.75;;;;;;;14.18;100.00;100487.00;6223505;28;20050;-74
2022/10/15 09:50:46;;;;;;;39.53;13.48;;;;;;;14.29;100.00;100491.50;6222815;28;20058;-74
2022/10/15 09:53:56;;;;;;;36.92;13.73;;;;;;;14.37;100.00;100480.38;6222904;28;20048;-74
2022/10/15 09:56:59;;;;;;;36.03;14.25;;;;;;;14.38;100.00;100484.69;6223385;28;20046;-74
2022/10/15 10:00:04;;;;;;;36.63;14.40;;;;;;;14.51;100.00;100484.69;6222874;28;20053;-74
2022/10/15 10:03:13;;;;;;;40.22;14.88;;;;;;;14.53;100.00;100486.22;6222891;28;20046;-74
2022/10/15 10:06:15;;;;;;;33.55;13.00;;;;;;;14.66;100.00;100489.66;6222697;28;20525;-74
2022/10/15 10:09:20;;;;;;;30.88;12.15;;;;;;;14.75;100.00;100487.28;6222885;28;20054;-74
2022/10/15 10:12:26;;;;;;;32.67;12.52;;;;;;;14.80;100.00;100487.78;6222383;28;20053;-74
2022/10/15 10:15:33;;;;;;;35.83;13.02;;;;;;;14.78;100.00;100479.13;6222944;28;20057;-74
2022/10/15 10:18:36;;;;;;;36.10;12.18;;;;;;;14.80;100.00;100477.22;6222839;28;20057;-75
2022/10/15 10:21:41;;;;;;;33.50;12.35;;;;;;;14.82;100.00;100486.72;6222388;28;20048;-74
2022/10/15 10:24:43;;;;;;;32.25;12.00;;;;;;;14.93;100.00;100476.16;6222381;28;20053;-74
2022/10/15 10:27:46;;;;;;;30.85;12.25;;;;;;;15.07;100.00;100484.84;6222562;28;20056;-74
2022/10/15 10:31:02;;;;;;;28.27;10.52;;;;;;;15.23;100.00;100480.09;6222115;28;20052;-75
2022/10/15 10:34:04;;;;;;;29.60;12.77;;;;;;;15.38;100.00;100472.75;6222019;28;20084;-74
2022/10/15 10:37:06;;;;;;;32.03;12.18;;;;;;;15.55;100.00;100463.50;6222271;28;20129;-74
2022/10/15 10:40:22;;;;;;;32.20;12.98;;;;;;;15.59;100.00;100475.53;6222014;28;20053;-75
2022/10/15 10:43:27;;;;;;;28.98;12.02;;;;;;;15.48;100.00;100466.59;6222395;28;20053;-74
2022/10/15 10:46:28;;;;;;;30.42;12.57;;;;;;;15.42;100.00;100468.91;6221879;28;20494;-74
2022/10/15 10:49:31;;;;;;;21.77;9.48;;;;;;;15.35;100.00;100473.84;6222196;28;20061;-74
2022/10/15 10:52:35;;;;;;;29.38;12.85;;;;;;;15.34;100.00;100466.84;6221856;28;20072;-74
2022/10/15 10:55:39;;;;;;;29.30;11.52;;;;;;;15.31;100.00;100459.16;6221600;28;20068;-74
2022/10/15 10:58:42;;;;;;;27.23;11.32;;;;;;;15.36;100.00;100451.69;6222358;28;20054;-74
2022/10/15 11:01:44;;;;;;;31.73;10.45;;;;;;;15.43;100.00;100452.88;6221272;28;20049;-74
2022/10/15 11:04:46;;;;;;;28.60;10.35;;;;;;;15.63;100.00;100456.63;6221929;28;20144;-75
2022/10/15 11:07:53;;;;;;;23.35;9.45;;;;;;;15.73;100.00;100451.47;6221881;28;20050;-75
2022/10/15 11:11:03;;;;;;;25.20;9.30;;;;;;;15.79;100.00;100455.44;6221903;28;20529;-74
2022/10/15 11:14:16;;;;;;;28.42;10.40;;;;;;;15.70;100.00;100452.53;6221462;28;20050;-74
2022/10/15 11:17:25;;;;;;;23.25;9.77;;;;;;;15.64;100.00;100461.00;6222132;28;20056;-74
2022/10/15 11:20:35;;;;;;;23.08;8.20;;;;;;;15.69;100.00;100457.97;6221448;28;20046;-74
2022/10/15 11:23:54;;;;;;;24.13;10.75;;;;;;;15.68;100.00;100453.66;6224865;28;20053;-74
2022/10/15 11:27:12;;;;;;;21.05;9.63;;;;;;;15.66;100.00;100445.81;6226601;28;20050;-74
2022/10/15 11:30:31;;;;;;;19.35;8.02;;;;;;;15.67;100.00;100452.81;6223586;28;20093;-74
2022/10/15 11:33:58;;;;;;;24.17;9.07;;;;;;;15.70;100.00;100443.75;6218656;28;20470;-75
2022/10/15 11:37:15;;;;;;;19.23;7.78;;;;;;;15.69;100.00;100428.84;6224926;28;20136;-74
2022/10/15 11:40:20;;;;;;;19.15;7.35;;;;;;;15.71;100.00;100427.75;6225893;28;20050;-74
2022/10/15 11:43:41;;;;;;;22.48;8.55;;;;;;;15.66;100.00;100429.91;6223922;28;20054;-75
2022/10/15 11:46:53;;;;;;;19.48;8.50;;;;;;;15.66;100.00;100421.97;6216370;28;20050;-74
2022/10/15 11:50:10;;;;;;;19.33;8.15;;;;;;;15.62;100.00;100417.00;6225665;28;20046;-75
2022/10/15 11:53:29;;;;;;;19.25;8.93;;;;;;;15.61;100.00;100413.50;6223097;28;20049;-74
2022/10/15 11:56:35;;;;;;;21.23;8.93;;;;;;;15.65;100.00;100412.34;6211083;28;20505;-74
2022/10/15 11:59:46;;;;;;;19.15;8.95;;;;;;;15.73;100.00;100411.75;6220921;28;20050;-74
2022/10/15 12:02:50;;;;;;;15.20;7.75;;;;;;;15.84;100.00;100403.75;6218472;28;20413;-75
2022/10/15 12:05:54;;;;;;;19.35;8.27;;;;;;;16.10;100.00;100406.94;6223943;28;20046;-75
2022/10/15 12:08:57;;;;;;;18.30;8.00;;;;;;;16.32;100.00;100407.84;6207614;28;20057;-75
2022/10/15 12:12:05;;;;;;;22.00;8.00;;;;;;;16.55;100.00;100390.84;6200859;28;20069;-74
2022/10/15 12:15:15;;;;;;;18.55;8.15;;;;;;;16.89;100.00;100385.34;6201150;28;20066;-75
2022/10/15 12:18:27;;;;;;;13.93;6.85;;;;;;;17.16;100.00;100376.81;6205739;28;20390;-72
2022/10/15 12:21:36;;;;;;;14.20;5.65;;;;;;;17.34;100.00;100371.72;6225015;28;20515;-72
2022/10/15 12:24:53;;;;;;;12.38;6.22;;;;;;;17.57;100.00;100361.72;6224992;28;20049;-72
2022/10/15 12:28:00;;;;;;;13.77;6.47;;;;;;;17.62;100.00;100365.66;6225707;28;20097;-72
2022/10/15 12:31:03;;;;;;;12.43;6.32;;;;;;;17.69;100.00;100358.81;6224959;28;20050;-72
2022/10/15 12:34:06;;;;;;;8.65;4.75;;;;;;;17.96;100.00;100352.03;6223635;28;20157;-72
2022/10/15 12:37:16;;;;;;;11.15;4.95;;;;;;;18.11;100.00;100349.78;6217061;28;20053;-73
2022/10/15 12:40:28;;;;;;;10.45;5.55;;;;;;;18.28;100.00;100340.25;6223510;28;20520;-73
2022/10/15 12:43:32;;;;;;;7.05;3.90;;;;;;;18.49;100.00;100340.94;6224645;28;20046;-72
2022/10/15 12:46:38;;;;;;;10.25;4.57;;;;;;;18.60;96.47;100337.28;6223466;28;20429;-73
2022/10/15 12:50:04;;;;;;;6.43;3.28;;;;;;;18.54;96.31;100332.53;6224466;28;20054;-72
2022/10/15 12:53:27;;;;;;;6.18;3.92;;;;;;;18.55;93.84;100337.69;6224084;28;20046;-75
2022/10/15 12:56:40;;;;;;;7.20;3.72;;;;;;;18.80;94.39;100327.44;6224134;28;20052;-74
2022/10/15 12:59:56;;;;;;;8.00;4.57;;;;;;;18.91;88.32;100324.59;6224346;28;20057;-73
2022/10/15 13:03:10;;;;;;;6.43;3.60;;;;;;;18.91;89.79;100317.44;6212969;28;20042;-74
2022/10/15 13:06:32;;;;;;;4.68;3.40;;;;;;;18.72;93.03;100323.69;6223968;28;20057;-74
2022/10/15 13:09:34;;;;;;;7.93;3.72;;;;;;;18.46;94.19;100319.94;6224507;28;20468;-74
2022/10/15 13:12:35;;;;;;;4.95;3.30;;;;;;;18.28;93.60;100317.16;6223681;28;20053;-74
2022/10/15 13:15:37;;;;;;;9.60;3.60;;;;;;;18.16;97.94;100316.47;6224059;28;20045;-74
2022/10/15 13:18:40;;;;;;;5.30;3.22;;;;;;;18.17;99.35;100314.66;6224044;28;20049;-72
2022/10/15 13:21:50;;;;;;;4.32;3.03;;;;;;;18.12;97.30;100309.78;6221424;28;20053;-72
2022/10/15 13:24:52;;;;;;;5.40;3.25;;;;;;;17.99;96.87;100302.06;6223363;28;20050;-72
2022/10/15 13:27:54;;;;;;;5.32;3.25;;;;;;;17.81;97.92;100302.91;6223787;28;20413;-72
2022/10/15 13:30:55;;;;;;;6.32;3.17;;;;;;;17.68;98.83;100303.97;6223467;28;20054;-72
2022/10/15 13:34:01;;;;;;;7.93;2.83;;;;;;;17.64;100.00;100288.44;6221518;28;20046;-72
2022/10/15 13:37:04;;;;;;;4.28;2.58;;;;;;;17.58;100.00;100294.34;6219105;28;20045;-72
2022/10/15 13:40:07;;;;;;;5.85;2.92;;;;;;;17.49;100.00;100288.03;6215557;28;20059;-72
2022/10/15 13:43:17;;;;;;;4.65;2.97;;;;;;;17.41;100.00;100290.53;6222066;28;20046;-72
2022/10/15 13:46:18;;;;;;;8.82;2.80;;;;;;;17.32;100.00;100284.22;6216263;28;20120;-72
2022/10/15 13:49:19;;;;;;;3.50;2.55;;;;;;;17.26;100.00;100287.41;6221838;28;20052;-72
2022/10/15 13:52:22;;;;;;;5.38;2.90;;;;;;;17.20;100.00;100274.66;6222566;28;20046;-72
2022/10/15 13:55:27;;;;;;;15.02;7.72;;;;;;;17.17;100.00;100267.00;6222814;28;20049;-72
2022/10/15 13:58:30;;;;;;;6.65;3.33;;;;;;;17.12;100.00;100272.72;6223033;28;20140;-72